Time;durP1;ratioP1;P1;durP2;ratioP2;P2;SDS_P1;SDS_P2;PMS_P1;PMS_P2;Temp;Humidity;BMP_temperature;BMP_pressure;BME280_temperature;BME280_humidity;BME280_pressure;Samples;Min_cycle;Max_cycle;Signal;HPM_P1;HPM_P2
2022/10/05 00:01:26;;;;;;;9.15;3.20;;;;;;;;;;5029773;28;20078;-66
2022/10/05 00:04:05;;;;;;;9.40;3.08;;;;;;;;;;5031309;28;20026;-68
2022/10/05 00:06:30;;;;;;;10.15;3.40;;;;;;;;;;5023228;28;20013;-65
2022/10/05 00:08:55;;;;;;;11.43;3.30;;;;;;;;;;5029667;28;20095;-69
2022/10/05 00:11:20;;;;;;;9.35;3.50;;;;;;;;;;5030432;28;20078;-64
2022/10/05 00:13:46;;;;;;;14.02;3.78;;;;;;;;;;5030573;28;20072;-66
2022/10/05 00:16:18;;;;;;;6.70;3.05;;;;;;;;;;5030870;28;20112;-66
2022/10/05 00:18:45;;;;;;;12.70;3.08;;;;;;;;;;5029087;28;20028;-70
2022/10/05 00:21:29;;;;;;;15.68;3.90;;;;;;;;;;5029980;28;20164;-67
2022/10/05 00:23:55;;;;;;;8.25;3.10;;;;;;;;;;5029557;28;20043;-65
2022/10/05 00:26:22;;;;;;;12.25;3.47;;;;;;;;;;5028255;28;20025;-65
2022/10/05 00:28:47;;;;;;;9.65;3.50;;;;;;;;;;5010692;28;20497;-67
2022/10/05 00:31:15;;;;;;;9.90;3.15;;;;;;;;;;5028198;28;20033;-67
2022/10/05 00:33:40;;;;;;;7.72;2.92;;;;;;;;;;5029091;28;20018;-67
2022/10/05 00:36:06;;;;;;;8.07;3.55;;;;;;;;;;5028316;28;20392;-68
2022/10/05 00:38:31;;;;;;;9.45;3.17;;;;;;;;;;5010024;28;20032;-64
2022/10/05 00:41:04;;;;;;;11.20;3.42;;;;;;;;;;5028232;28;20408;-66
2022/10/05 00:43:38;;;;;;;13.85;3.47;;;;;;;;;;5028393;28;20097;-64
2022/10/05 00:46:09;;;;;;;14.05;3.30;;;;;;;;;;5027890;28;20380;-66
2022/10/05 00:48:57;;;;;;;9.63;3.50;;;;;;;;;;5027988;28;20027;-65
2022/10/05 00:51:24;;;;;;;7.03;3.07;;;;;;;;;;5028488;28;20028;-66
2022/10/05 00:54:08;;;;;;;12.73;3.28;;;;;;;;;;5029011;28;20250;-67
2022/10/05 00:56:37;;;;;;;12.63;3.65;;;;;;;;;;5010086;28;20076;-66
2022/10/05 00:59:20;;;;;;;13.73;3.78;;;;;;;;;;5028567;28;20143;-65
2022/10/05 01:01:46;;;;;;;7.43;3.42;;;;;;;;;;5024530;28;20033;-67
2022/10/05 01:04:17;;;;;;;12.97;3.00;;;;;;;;;;5027818;28;20044;-66
2022/10/05 01:06:58;;;;;;;8.48;2.97;;;;;;;;;;5027727;28;20266;-66
2022/10/05 01:09:37;;;;;;;6.82;2.85;;;;;;;;;;5027826;28;20014;-64
2022/10/05 01:12:08;;;;;;;7.55;3.13;;;;;;;;;;5027952;28;20040;-67
2022/10/05 01:15:05;;;;;;;9.13;3.75;;;;;;;;;;5028281;28;20025;-67
2022/10/05 01:17:36;;;;;;;11.05;3.00;;;;;;;;;;4994173;28;20037;-67
2022/10/05 01:20:04;;;;;;;15.45;3.40;;;;;;;;;;5028022;28;20018;-65
2022/10/05 01:22:57;;;;;;;8.88;2.85;;;;;;;;;;5028567;28;20025;-63
2022/10/05 01:25:33;;;;;;;6.32;2.63;;;;;;;;;;5010026;28;20064;-68
2022/10/05 01:28:02;;;;;;;8.52;3.30;;;;;;;;;;5020476;28;20018;-65
2022/10/05 01:30:32;;;;;;;10.05;3.63;;;;;;;;;;5026085;28;20014;-66
2022/10/05 01:33:06;;;;;;;7.53;3.28;;;;;;;;;;5028356;28;20033;-65
2022/10/05 01:35:32;;;;;;;10.60;2.70;;;;;;;;;;5015139;28;20025;-66
2022/10/05 01:38:07;;;;;;;7.57;3.10;;;;;;;;;;5029997;28;20032;-65
2022/10/05 01:40:37;;;;;;;7.47;3.10;;;;;;;;;;5030840;28;20258;-65
2022/10/05 01:43:03;;;;;;;7.63;3.10;;;;;;;;;;5030130;28;20033;-65
2022/10/05 01:45:37;;;;;;;10.02;3.22;;;;;;;;;;5029435;28;20030;-65
2022/10/05 01:48:12;;;;;;;11.02;3.55;;;;;;;;;;5028091;28;20025;-67
2022/10/05 01:50:37;;;;;;;11.07;3.05;;;;;;;;;;5027044;28;20025;-66
2022/10/05 01:53:09;;;;;;;10.53;3.20;;;;;;;;;;5027792;28;20462;-64
2022/10/05 01:55:45;;;;;;;11.43;3.55;;;;;;;;;;5027204;28;20247;-67
2022/10/05 01:58:32;;;;;;;11.27;3.17;;;;;;;;;;5027619;28;20096;-68
2022/10/05 02:01:26;;;;;;;6.10;3.15;;;;;;;;;;5028873;28;20104;-63
2022/10/05 02:03:55;;;;;;;10.77;3.30;;;;;;;;;;5009778;28;20404;-64
2022/10/05 02:06:20;;;;;;;;;;;;;;;;;;5025816;28;20033;-66
2022/10/05 02:08:48;;;;;;;12.63;3.67;;;;;;;;;;5031938;28;19909;-66
2022/10/05 02:11:14;;;;;;;17.70;3.58;;;;;;;;;;5033146;28;20018;-66
2022/10/05 02:13:39;;;;;;;8.77;3.42;;;;;;;;;;5033608;28;20064;-65
2022/10/05 02:16:13;;;;;;;9.70;3.30;;;;;;;;;;5032629;28;20029;-67
2022/10/05 02:18:50;;;;;;;8.68;3.22;;;;;;;;;;5031350;28;20583;-67
2022/10/05 02:21:16;;;;;;;8.00;3.08;;;;;;;;;;5031153;28;20592;-67
2022/10/05 02:23:43;;;;;;;5.43;3.08;;;;;;;;;;5031291;28;20104;-65
2022/10/05 02:26:10;;;;;;;12.50;3.47;;;;;;;;;;5030866;28;20506;-67
2022/10/05 02:28:38;;;;;;;11.90;3.55;;;;;;;;;;5022229;28;20456;-67
2022/10/05 02:31:14;;;;;;;9.55;3.22;;;;;;;;;;5031227;28;20359;-66
2022/10/05 02:33:39;;;;;;;6.85;3.60;;;;;;;;;;5032181;28;20036;-66
2022/10/05 02:36:20;;;;;;;16.10;3.80;;;;;;;;;;5031941;28;20105;-66
2022/10/05 02:38:58;;;;;;;7.68;3.17;;;;;;;;;;5031545;28;20502;-66
2022/10/05 02:41:23;;;;;;;7.97;3.45;;;;;;;;;;5031338;28;20123;-66
2022/10/05 02:44:03;;;;;;;6.38;3.10;;;;;;;;;;5031505;28;20053;-67
2022/10/05 02:46:29;;;;;;;12.88;3.67;;;;;;;;;;5031423;28;20255;-64
2022/10/05 02:48:59;;;;;;;6.80;3.35;;;;;;;;;;5031778;28;20136;-65
2022/10/05 02:51:32;;;;;;;9.20;4.03;;;;;;;;;;5013771;28;20100;-66
2022/10/05 02:54:11;;;;;;;10.38;3.88;;;;;;;;;;5014113;28;20075;-66
2022/10/05 02:56:36;;;;;;;10.20;3.40;;;;;;;;;;5031320;28;20603;-66
2022/10/05 02:59:18;;;;;;;10.55;3.50;;;;;;;;;;5031443;28;20029;-65
2022/10/05 03:01:57;;;;;;;10.93;3.65;;;;;;;;;;5012210;28;20341;-65
2022/10/05 03:04:37;;;;;;;10.13;3.13;;;;;;;;;;5027291;28;20025;-66
2022/10/05 03:07:17;;;;;;;17.42;4.10;;;;;;;;;;5023768;28;20014;-66
2022/10/05 03:09:46;;;;;;;14.10;3.75;;;;;;;;;;5020164;28;20384;-65
2022/10/05 03:12:12;;;;;;;9.75;3.42;;;;;;;;;;5032035;28;20098;-65
2022/10/05 03:14:37;;;;;;;11.45;3.65;;;;;;;;;;5030413;28;20030;-67
2022/10/05 03:17:11;;;;;;;15.23;3.90;;;;;;;;;;5029669;28;20033;-64
2022/10/05 03:19:49;;;;;;;10.02;3.85;;;;;;;;;;5030395;28;20269;-66
2022/10/05 03:22:17;;;;;;;12.32;4.18;;;;;;;;;;5012627;28;20032;-63
2022/10/05 03:24:42;;;;;;;9.67;3.70;;;;;;;;;;5012112;28;20482;-64
2022/10/05 03:27:08;;;;;;;13.48;4.35;;;;;;;;;;5029557;28;20251;-67
2022/10/05 03:29:52;;;;;;;15.43;4.10;;;;;;;;;;5021881;28;20018;-65
2022/10/05 03:32:26;;;;;;;16.30;4.63;;;;;;;;;;5012024;28;20255;-65
2022/10/05 03:34:54;;;;;;;10.77;4.03;;;;;;;;;;5029673;28;20533;-68
2022/10/05 03:37:22;;;;;;;13.32;4.32;;;;;;;;;;5031565;28;20431;-66
2022/10/05 03:39:52;;;;;;;19.85;5.28;;;;;;;;;;5031358;28;20032;-66
2022/10/05 03:42:30;;;;;;;9.98;4.13;;;;;;;;;;5030742;28;20017;-65
2022/10/05 03:45:01;;;;;;;11.32;4.47;;;;;;;;;;5029872;28;20026;-67
2022/10/05 03:47:40;;;;;;;10.55;4.75;;;;;;;;;;5029510;28;20025;-66
2022/10/05 03:50:24;;;;;;;11.82;4.28;;;;;;;;;;5013694;28;20018;-66
2022/10/05 03:52:53;;;;;;;15.35;4.28;;;;;;;;;;5025391;28;20038;-68
2022/10/05 03:55:18;;;;;;;;;;;;;;;;;;5013109;28;20025;-66
2022/10/05 03:57:44;;;;;;;16.60;4.88;;;;;;;;;;5012072;28;19985;-65
2022/10/05 04:00:17;;;;;;;12.07;4.45;;;;;;;;;;5010455;28;20028;-65
2022/10/05 04:02:46;;;;;;;31.48;4.78;;;;;;;;;;5026512;28;20380;-66
2022/10/05 04:05:27;;;;;;;12.27;4.65;;;;;;;;;;5024332;28;20121;-66
2022/10/05 04:07:55;;;;;;;14.98;5.07;;;;;;;;;;5026720;28;20136;-65
2022/10/05 04:10:24;;;;;;;14.05;4.68;;;;;;;;;;5024228;28;20389;-68
2022/10/05 04:12:52;;;;;;;18.15;5.70;;;;;;;;;;5025611;28;20025;-65
2022/10/05 04:15:28;;;;;;;15.05;5.43;;;;;;;;;;5009689;28;20060;-68
2022/10/05 04:17:58;;;;;;;14.65;4.65;;;;;;;;;;5028903;28;20394;-67
2022/10/05 04:20:28;;;;;;;14.98;4.82;;;;;;;;;;5009611;28;20025;-67
2022/10/05 04:22:56;;;;;;;13.43;5.15;;;;;;;;;;5012012;28;20139;-67
2022/10/05 04:25:25;;;;;;;12.45;4.65;;;;;;;;;;5031393;28;20020;-67
2022/10/05 04:28:10;;;;;;;10.48;4.30;;;;;;;;;;5028522;28;20033;-66
2022/10/05 04:30:38;;;;;;;14.88;4.38;;;;;;;;;;4999841;28;20033;-65
2022/10/05 04:33:07;;;;;;;11.95;4.95;;;;;;;;;;5030089;28;20033;-68
2022/10/05 04:35:32;;;;;;;;;;;;;;;;;;5030654;28;20140;-68
2022/10/05 04:37:57;;;;;;;19.25;4.68;;;;;;;;;;5016491;28;19909;-67
2022/10/05 04:40:41;;;;;;;15.02;5.03;;;;;;;;;;5031421;28;20075;-67
2022/10/05 04:43:13;;;;;;;22.05;5.88;;;;;;;;;;5012734;28;20025;-67
2022/10/05 04:45:44;;;;;;;16.30;6.22;;;;;;;;;;5032335;28;20477;-67
2022/10/05 04:48:15;;;;;;;18.08;5.82;;;;;;;;;;5030548;28;20017;-66
2022/10/05 04:50:40;;;;;;;15.25;5.63;;;;;;;;;;5032115;28;20112;-67
2022/10/05 04:53:09;;;;;;;13.90;4.87;;;;;;;;;;5032038;28;20044;-67
2022/10/05 04:55:51;;;;;;;13.75;5.38;;;;;;;;;;5033111;28;20338;-66
2022/10/05 04:58:16;;;;;;;12.38;5.25;;;;;;;;;;5032283;28;20032;-68
2022/10/05 05:00:57;;;;;;;19.73;6.17;;;;;;;;;;5032226;28;20013;-68
2022/10/05 05:03:41;;;;;;;15.63;6.03;;;;;;;;;;5028371;28;20679;-68
2022/10/05 05:06:06;;;;;;;16.75;5.38;;;;;;;;;;5026464;28;20029;-67
2022/10/05 05:08:50;;;;;;;11.80;5.50;;;;;;;;;;5032576;28;20018;-67
2022/10/05 05:11:24;;;;;;;15.50;6.40;;;;;;;;;;5029493;28;20257;-68
2022/10/05 05:14:13;;;;;;;14.90;6.05;;;;;;;;;;5033313;28;20379;-66
2022/10/05 05:16:43;;;;;;;11.20;5.40;;;;;;;;;;5032924;28;20032;-68
2022/10/05 05:19:08;;;;;;;18.05;4.57;;;;;;;;;;5033308;28;20032;-68
2022/10/05 05:21:46;;;;;;;13.23;4.53;;;;;;;;;;5030620;28;20037;-66
2022/10/05 05:24:27;;;;;;;9.70;4.53;;;;;;;;;;5025989;28;20083;-67
2022/10/05 05:26:52;;;;;;;18.10;4.28;;;;;;;;;;5029928;28;20270;-66
2022/10/05 05:29:34;;;;;;;17.20;4.10;;;;;;;;;;5027219;28;20033;-66
2022/10/05 05:32:06;;;;;;;11.05;5.68;;;;;;;;;;5003178;28;20266;-65
2022/10/05 05:34:32;;;;;;;10.35;4.00;;;;;;;;;;5033268;28;20021;-66
2022/10/05 05:37:03;;;;;;;10.65;4.20;;;;;;;;;;5028556;28;20412;-64
2022/10/05 05:39:36;;;;;;;23.23;4.40;;;;;;;;;;5038066;28;20045;-67
2022/10/05 05:42:24;;;;;;;11.05;4.18;;;;;;;;;;5038788;28;20060;-66
2022/10/05 05:44:52;;;;;;;11.25;4.28;;;;;;;;;;5007187;28;20041;-65
2022/10/05 05:47:24;;;;;;;15.23;5.30;;;;;;;;;;5036071;28;20045;-63
2022/10/05 05:50:04;;;;;;;14.30;4.40;;;;;;;;;;5026650;28;20056;-66
2022/10/05 05:52:50;;;;;;;20.83;4.10;;;;;;;;;;5036731;28;20025;-66
2022/10/05 05:55:19;;;;;;;11.38;4.18;;;;;;;;;;5037667;28;20037;-65
2022/10/05 05:57:51;;;;;;;16.70;4.47;;;;;;;;;;5036860;28;20017;-66
2022/10/05 06:00:21;;;;;;;15.98;4.65;;;;;;;;;;5037758;28;20041;-66
2022/10/05 06:02:49;;;;;;;15.57;4.75;;;;;;;;;;5035997;28;20025;-65
2022/10/05 06:05:23;;;;;;;8.82;4.10;;;;;;;;;;5036892;28;20479;-65
2022/10/05 06:07:50;;;;;;;13.38;5.07;;;;;;;;;;5031191;28;20022;-65
2022/10/05 06:10:23;;;;;;;8.48;4.32;;;;;;;;;;5039488;28;20509;-66
2022/10/05 06:12:51;;;;;;;10.52;4.35;;;;;;;;;;5038312;28;20031;-64
2022/10/05 06:15:28;;;;;;;15.45;5.10;;;;;;;;;;5038770;28;20085;-66
2022/10/05 06:17:55;;;;;;;12.15;4.55;;;;;;;;;;5037638;28;20017;-68
2022/10/05 06:20:27;;;;;;;12.77;5.22;;;;;;;;;;5037830;28;20041;-66
2022/10/05 06:22:54;;;;;;;16.80;4.40;;;;;;;;;;5036752;28;20525;-66
2022/10/05 06:25:27;;;;;;;9.13;4.05;;;;;;;;;;5038490;28;20086;-65
2022/10/05 06:27:58;;;;;;;8.38;3.90;;;;;;;;;;5030651;28;20014;-65
2022/10/05 06:30:25;;;;;;;9.95;4.63;;;;;;;;;;5034393;28;20024;-66
2022/10/05 06:32:53;;;;;;;13.02;4.20;;;;;;;;;;5035503;28;20018;-67
2022/10/05 06:35:27;;;;;;;21.80;4.47;;;;;;;;;;5037089;28;20100;-67
2022/10/05 06:38:12;;;;;;;8.38;3.50;;;;;;;;;;5036642;28;20030;-67
2022/10/05 06:40:42;;;;;;;18.00;4.45;;;;;;;;;;5019044;28;20041;-65
2022/10/05 06:43:10;;;;;;;10.63;4.50;;;;;;;;;;5037250;28;20041;-65
2022/10/05 06:45:48;;;;;;;10.48;4.95;;;;;;;;;;5036964;28;20013;-66
2022/10/05 06:48:18;;;;;;;9.90;4.40;;;;;;;;;;5037154;28;20076;-65
2022/10/05 06:50:51;;;;;;;9.82;4.65;;;;;;;;;;5035943;28;20024;-66
2022/10/05 06:53:28;;;;;;;8.43;4.22;;;;;;;;;;5038189;28;20535;-65
2022/10/05 06:56:02;;;;;;;14.40;5.30;;;;;;;;;;5036722;28;20048;-67
2022/10/05 06:58:43;;;;;;;12.35;4.13;;;;;;;;;;5038162;28;20018;-66
2022/10/05 07:01:26;;;;;;;15.20;4.57;;;;;;;;;;5034020;28;20033;-66
2022/10/05 07:04:27;;;;;;;14.02;4.40;;;;;;;;;;5031720;28;20026;-65
2022/10/05 07:06:56;;;;;;;12.73;4.32;;;;;;;;;;4998555;28;20014;-67
2022/10/05 07:09:38;;;;;;;13.75;4.47;;;;;;;;;;5030205;28;20036;-66
2022/10/05 07:12:03;;;;;;;15.02;4.40;;;;;;;;;;5037564;28;20021;-66
2022/10/05 07:14:47;;;;;;;15.27;4.10;;;;;;;;;;5037039;28;20036;-64
2022/10/05 07:17:18;;;;;;;8.13;4.32;;;;;;;;;;5035208;28;20028;-67
2022/10/05 07:19:43;;;;;;;18.90;5.25;;;;;;;;;;5027688;28;20025;-66
2022/10/05 07:22:18;;;;;;;10.37;4.50;;;;;;;;;;5036401;28;20110;-67
2022/10/05 07:25:01;;;;;;;9.55;4.40;;;;;;;;;;5036676;28;20274;-65
2022/10/05 07:27:30;;;;;;;13.35;4.78;;;;;;;;;;5033352;28;20551;-64
2022/10/05 07:29:55;;;;;;;14.35;4.10;;;;;;;;;;5029692;28;20032;-66
2022/10/05 07:32:26;;;;;;;14.97;5.13;;;;;;;;;;5035963;28;20022;-68
2022/10/05 07:34:57;;;;;;;21.35;5.25;;;;;;;;;;5031612;28;20304;-67
2022/10/05 07:40:24;;;;;;;9.20;4.38;;;;;;;;;;5035979;28;20102;-68
2022/10/05 07:42:49;;;;;;;11.00;4.97;;;;;;;;;;5035735;28;20080;-67
2022/10/05 07:45:15;;;;;;;16.20;4.30;;;;;;;;;;5017461;28;20026;-66
2022/10/05 07:47:46;;;;;;;8.95;4.38;;;;;;;;;;5036268;28;20251;-68
2022/10/05 07:50:13;;;;;;;14.38;4.95;;;;;;;;;;5034655;28;20710;-64
2022/10/05 07:52:40;;;;;;;10.02;4.30;;;;;;;;;;5029309;28;20017;-67
2022/10/05 07:55:11;;;;;;;10.52;4.07;;;;;;;;;;5036015;28;20022;-66
2022/10/05 07:57:43;;;;;;;8.85;4.30;;;;;;;;;;5034868;28;20395;-67
2022/10/05 08:00:17;;;;;;;15.75;4.28;;;;;;;;;;5017518;28;20093;-68
2022/10/05 08:02:51;;;;;;;9.18;4.40;;;;;;;;;;5035398;28;20025;-69
2022/10/05 08:05:21;;;;;;;17.40;4.80;;;;;;;;;;5036238;28;20069;-67
2022/10/05 08:07:49;;;;;;;13.70;4.28;;;;;;;;;;5038160;28;20033;-65
2022/10/05 08:10:17;;;;;;;16.30;5.25;;;;;;;;;;5037364;28;20013;-68
2022/10/05 08:13:01;;;;;;;18.25;6.32;;;;;;;;;;5018736;28;20017;-66
2022/10/05 08:15:32;;;;;;;7.65;4.05;;;;;;;;;;5036981;28;20037;-67
2022/10/05 08:17:59;;;;;;;11.77;4.63;;;;;;;;;;5036264;28;20143;-67
2022/10/05 08:20:31;;;;;;;11.75;4.40;;;;;;;;;;5019121;28;20093;-67
2022/10/05 08:22:59;;;;;;;15.05;4.57;;;;;;;;;;5037593;28;20032;-65
2022/10/05 08:25:32;;;;;;;14.00;5.27;;;;;;;;;;5031297;28;20782;-65
2022/10/05 08:28:23;;;;;;;9.63;4.90;;;;;;;;;;5022259;28;20371;-67
2022/10/05 08:30:54;;;;;;;10.15;4.60;;;;;;;;;;5007538;28;20703;-68
2022/10/05 08:33:21;;;;;;;10.25;4.20;;;;;;;;;;5029857;28;20014;-71
2022/10/05 08:35:54;;;;;;;11.77;4.57;;;;;;;;;;5029565;28;20009;-68
2022/10/05 08:38:23;;;;;;;12.88;4.50;;;;;;;;;;5029471;28;20032;-71
2022/10/05 08:40:52;;;;;;;12.20;4.30;;;;;;;;;;5011315;28;20033;-70
2022/10/05 08:43:40;;;;;;;16.70;4.53;;;;;;;;;;5028849;28;20383;-67
2022/10/05 08:46:12;;;;;;;15.23;4.25;;;;;;;;;;4996774;28;20037;-66
2022/10/05 08:48:56;;;;;;;13.45;4.60;;;;;;;;;;5029875;28;20017;-70
2022/10/05 08:51:21;;;;;;;13.43;4.15;;;;;;;;;;5030788;28;20025;-69
2022/10/05 08:53:55;;;;;;;14.97;4.37;;;;;;;;;;5024460;28;20017;-69
2022/10/05 08:56:24;;;;;;;16.15;3.80;;;;;;;;;;5028726;28;20246;-71
2022/10/05 08:59:01;;;;;;;20.17;4.32;;;;;;;;;;5028955;28;20175;-67
2022/10/05 09:01:29;;;;;;;12.10;4.38;;;;;;;;;;5023905;28;20033;-65
2022/10/05 09:04:23;;;;;;;13.27;4.22;;;;;;;;;;5026130;28;20061;-70
2022/10/05 09:07:01;;;;;;;11.25;4.18;;;;;;;;;;5014296;28;20387;-70
2022/10/05 09:09:45;;;;;;;7.68;3.80;;;;;;;;;;5027696;28;20025;-70
2022/10/05 09:12:13;;;;;;;16.08;4.82;;;;;;;;;;5028116;28;20017;-69
2022/10/05 09:14:50;;;;;;;9.25;4.18;;;;;;;;;;5028110;28;20037;-69
2022/10/05 09:17:18;;;;;;;11.43;4.10;;;;;;;;;;5028561;28;20048;-68
2022/10/05 09:19:52;;;;;;;11.03;4.33;;;;;;;;;;5028115;28;20029;-68
2022/10/05 09:22:20;;;;;;;14.68;4.30;;;;;;;;;;5028885;28;20022;-67
2022/10/05 09:25:09;;;;;;;11.67;4.37;;;;;;;;;;5011270;28;20501;-66
2022/10/05 09:27:34;;;;;;;8.90;3.78;;;;;;;;;;5024697;28;20252;-69
2022/10/05 09:30:19;;;;;;;10.75;4.15;;;;;;;;;;5027621;28;20023;-71
2022/10/05 09:32:44;;;;;;;8.30;4.03;;;;;;;;;;5028575;28;20057;-67
2022/10/05 09:35:20;;;;;;;12.97;4.00;;;;;;;;;;5010034;28;20433;-69
2022/10/05 09:38:05;;;;;;;8.98;3.85;;;;;;;;;;5030043;28;20316;-68
2022/10/05 09:40:49;;;;;;;12.40;4.03;;;;;;;;;;5028511;28;20646;-66
2022/10/05 09:43:23;;;;;;;12.95;4.00;;;;;;;;;;5023800;28;20029;-65
2022/10/05 09:45:55;;;;;;;10.65;3.88;;;;;;;;;;5028765;28;20101;-67
2022/10/05 09:48:30;;;;;;;8.48;3.88;;;;;;;;;;5029168;28;20414;-67
2022/10/05 09:51:08;;;;;;;7.95;3.75;;;;;;;;;;5006867;28;20480;-67
2022/10/05 09:53:53;;;;;;;12.90;3.60;;;;;;;;;;5011903;28;20029;-66
2022/10/05 09:56:33;;;;;;;15.55;3.83;;;;;;;;;;5028440;28;20111;-66
2022/10/05 09:59:07;;;;;;;15.82;4.10;;;;;;;;;;5027779;28;20405;-67
2022/10/05 10:01:39;;;;;;;8.40;3.60;;;;;;;;;;5028261;28;20075;-68
2022/10/05 10:04:10;;;;;;;8.50;3.90;;;;;;;;;;5028970;28;20029;-66
2022/10/05 10:07:08;;;;;;;9.68;3.85;;;;;;;;;;5028851;28;20016;-69
2022/10/05 10:09:36;;;;;;;6.88;3.83;;;;;;;;;;4987808;28;20669;-67
2022/10/05 10:12:17;;;;;;;7.03;3.50;;;;;;;;;;5030253;28;20104;-69
2022/10/05 10:14:47;;;;;;;10.65;4.05;;;;;;;;;;5013685;28;20033;-67
2022/10/05 10:17:30;;;;;;;11.18;3.97;;;;;;;;;;5013321;28;20153;-66
2022/10/05 10:19:56;;;;;;;9.73;4.03;;;;;;;;;;5023980;28;20025;-66
2022/10/05 10:22:32;;;;;;;9.52;3.50;;;;;;;;;;5031040;28;20028;-68
2022/10/05 10:25:12;;;;;;;11.10;3.92;;;;;;;;;;5033492;28;20056;-70
2022/10/05 10:27:52;;;;;;;8.57;3.80;;;;;;;;;;5013548;28;20046;-70
2022/10/05 10:30:35;;;;;;;9.35;3.85;;;;;;;;;;5027953;28;20017;-70
2022/10/05 10:33:12;;;;;;;12.00;3.83;;;;;;;;;;5034590;28;20091;-68
2022/10/05 10:35:40;;;;;;;10.02;3.63;;;;;;;;;;5016868;28;20045;-73
2022/10/05 10:38:22;;;;;;;7.80;3.87;;;;;;;;;;5034059;28;20105;-71
2022/10/05 10:40:53;;;;;;;6.90;3.65;;;;;;;;;;5033754;28;20061;-69
2022/10/05 10:43:38;;;;;;;11.00;3.83;;;;;;;;;;5036106;28;20461;-69
2022/10/05 10:46:29;;;;;;;8.20;3.30;;;;;;;;;;5035595;28;20013;-69
2022/10/05 10:48:56;;;;;;;10.60;3.60;;;;;;;;;;5013031;28;20026;-69
2022/10/05 10:51:40;;;;;;;8.40;3.38;;;;;;;;;;5034308;28;20096;-70
2022/10/05 10:54:21;;;;;;;11.23;3.40;;;;;;;;;;5015507;28;20458;-70
2022/10/05 10:56:54;;;;;;;10.07;3.60;;;;;;;;;;5033237;28;20021;-71
2022/10/05 10:59:22;;;;;;;8.27;3.60;;;;;;;;;;5014942;28;20418;-72
2022/10/05 11:01:47;;;;;;;;;;;;;;;;;;5033624;28;20021;-70
2022/10/05 11:04:22;;;;;;;5.97;2.53;;;;;;;;;;5032946;28;19958;-74
2022/10/05 11:07:06;;;;;;;10.98;3.13;;;;;;;;;;5033928;28;20093;-75
2022/10/05 11:09:37;;;;;;;7.80;2.80;;;;;;;;;;5033111;28;20421;-72
2022/10/05 11:12:03;;;;;;;11.25;3.28;;;;;;;;;;5032858;28;20498;-70
2022/10/05 11:14:46;;;;;;;9.20;3.33;;;;;;;;;;5014155;28;20026;-69
2022/10/05 11:17:14;;;;;;;7.93;3.10;;;;;;;;;;5030540;28;20025;-68
2022/10/05 11:19:39;;;;;;;5.47;2.92;;;;;;;;;;5012491;28;20018;-70
2022/10/05 11:22:15;;;;;;;9.23;2.80;;;;;;;;;;5030999;28;20024;-70
2022/10/05 11:24:49;;;;;;;9.65;3.38;;;;;;;;;;5030351;28;20372;-68
2022/10/05 11:27:14;;;;;;;8.57;3.05;;;;;;;;;;5028502;28;20010;-68
2022/10/05 11:29:45;;;;;;;8.20;3.00;;;;;;;;;;5028734;28;20033;-71
2022/10/05 11:32:26;;;;;;;9.75;3.17;;;;;;;;;;5030610;28;20273;-68
2022/10/05 11:35:10;;;;;;;6.72;3.55;;;;;;;;;;5029948;28;20030;-71
2022/10/05 11:37:41;;;;;;;16.08;3.58;;;;;;;;;;5030285;28;20049;-70
2022/10/05 11:40:16;;;;;;;8.88;3.90;;;;;;;;;;5017238;28;20099;-72
2022/10/05 11:42:56;;;;;;;11.98;3.15;;;;;;;;;;5031881;28;20044;-70
2022/10/05 11:45:24;;;;;;;9.15;3.25;;;;;;;;;;5029929;28;20051;-71
2022/10/05 11:48:08;;;;;;;6.88;3.40;;;;;;;;;;5011909;28;20041;-73
2022/10/05 11:50:38;;;;;;;6.28;3.30;;;;;;;;;;5024557;28;20096;-68
2022/10/05 11:53:14;;;;;;;10.05;3.63;;;;;;;;;;5030010;28;20027;-71
2022/10/05 11:55:39;;;;;;;8.02;3.42;;;;;;;;;;5030015;28;20144;-69
2022/10/05 11:58:14;;;;;;;9.67;3.33;;;;;;;;;;5027789;28;20315;-71
2022/10/05 12:00:45;;;;;;;13.88;3.58;;;;;;;;;;5030114;28;20251;-68
2022/10/05 12:03:19;;;;;;;6.65;3.53;;;;;;;;;;5029218;28;20403;-69
2022/10/05 12:05:44;;;;;;;5.93;3.05;;;;;;;;;;5028176;28;20029;-68
2022/10/05 12:08:22;;;;;;;9.20;3.60;;;;;;;;;;5027165;28;20017;-69
2022/10/05 12:10:50;;;;;;;7.18;3.47;;;;;;;;;;5027078;28;20316;-70
2022/10/05 12:13:25;;;;;;;7.63;3.45;;;;;;;;;;5026058;28;20079;-69
2022/10/05 12:16:00;;;;;;;7.55;3.33;;;;;;;;;;5028758;28;20034;-69
2022/10/05 12:18:28;;;;;;;6.70;3.08;;;;;;;;;;5021842;28;20041;-69
2022/10/05 12:21:13;;;;;;;14.48;4.15;;;;;;;;;;5029988;28;20411;-68
2022/10/05 12:23:39;;;;;;;10.15;3.63;;;;;;;;;;5030354;28;20100;-68
2022/10/05 12:26:09;;;;;;;7.78;3.22;;;;;;;;;;5030073;28;20420;-74
2022/10/05 12:28:45;;;;;;;9.15;3.10;;;;;;;;;;5024517;28;20499;-71
2022/10/05 12:31:29;;;;;;;13.05;3.25;;;;;;;;;;5029916;28;20025;-69
2022/10/05 12:34:02;;;;;;;6.53;3.13;;;;;;;;;;5019571;28;20443;-71
2022/10/05 12:36:36;;;;;;;12.13;3.78;;;;;;;;;;5029387;28;20364;-69
2022/10/05 12:39:08;;;;;;;8.88;3.10;;;;;;;;;;5029561;28;20487;-70
2022/10/05 12:41:36;;;;;;;6.47;2.55;;;;;;;;;;5029115;28;20108;-68
2022/10/05 12:44:01;;;;;;;8.07;2.95;;;;;;;;;;5024555;28;20040;-68
2022/10/05 12:46:38;;;;;;;9.47;3.20;;;;;;;;;;5028261;28;20030;-69
2022/10/05 12:49:22;;;;;;;6.13;2.65;;;;;;;;;;5027171;28;20247;-70
2022/10/05 12:51:50;;;;;;;6.07;3.05;;;;;;;;;;5017550;28;20086;-68
2022/10/05 12:54:33;;;;;;;9.23;3.15;;;;;;;;;;5027254;28;20029;-68
2022/10/05 12:57:01;;;;;;;4.80;2.63;;;;;;;;;;5010997;28;20511;-69
2022/10/05 12:59:27;;;;;;;9.63;2.83;;;;;;;;;;5028219;28;20029;-68
2022/10/05 13:01:55;;;;;;;6.07;2.97;;;;;;;;;;5019777;28;20045;-69
2022/10/05 13:04:37;;;;;;;6.75;2.70;;;;;;;;;;5027464;28;20279;-69
2022/10/05 13:07:05;;;;;;;6.28;2.95;;;;;;;;;;5028608;28;20033;-68
2022/10/05 13:09:36;;;;;;;6.75;3.20;;;;;;;;;;5028000;28;20073;-68
2022/10/05 13:12:07;;;;;;;9.10;2.72;;;;;;;;;;5029683;28;20111;-69
2022/10/05 13:14:41;;;;;;;5.07;2.58;;;;;;;;;;5029167;28;20030;-69
2022/10/05 13:17:25;;;;;;;6.28;2.42;;;;;;;;;;5028781;28;20079;-66
2022/10/05 13:19:56;;;;;;;9.90;2.25;;;;;;;;;;5029324;28;20021;-70
2022/10/05 13:22:24;;;;;;;5.82;2.50;;;;;;;;;;5028802;28;20108;-68
2022/10/05 13:25:04;;;;;;;4.68;2.00;;;;;;;;;;5029354;28;20064;-69
2022/10/05 13:27:39;;;;;;;5.72;2.53;;;;;;;;;;5025554;28;20022;-69
2022/10/05 13:30:10;;;;;;;6.28;2.38;;;;;;;;;;5027557;28;20021;-67
2022/10/05 13:32:39;;;;;;;6.78;2.50;;;;;;;;;;5011104;28;20022;-67
2022/10/05 13:35:14;;;;;;;3.90;1.95;;;;;;;;;;5028185;28;20491;-69
2022/10/05 13:37:39;;;;;;;5.28;2.33;;;;;;;;;;5026388;28;20080;-71
2022/10/05 13:40:04;;;;;;;5.37;2.23;;;;;;;;;;5028611;28;20022;-70
2022/10/05 13:42:33;;;;;;;8.52;2.78;;;;;;;;;;5027852;28;20294;-71
2022/10/05 13:45:01;;;;;;;4.90;2.40;;;;;;;;;;5010232;28;20445;-69
2022/10/05 13:47:33;;;;;;;8.05;2.72;;;;;;;;;;5010170;28;20518;-69
2022/10/05 13:50:19;;;;;;;6.15;3.13;;;;;;;;;;5015932;28;20042;-69
2022/10/05 13:52:53;;;;;;;5.75;2.20;;;;;;;;;;5010422;28;20061;-69
2022/10/05 13:55:38;;;;;;;10.25;2.13;;;;;;;;;;5028535;28;20032;-68
2022/10/05 13:58:07;;;;;;;9.25;2.05;;;;;;;;;;5024342;28;20430;-70
2022/10/05 14:00:32;;;;;;;;;;;;;;;;;;5031496;28;20032;-69
2022/10/05 14:02:59;;;;;;;6.30;2.30;;;;;;;;;;5032146;28;19967;-72
2022/10/05 14:05:26;;;;;;;5.97;2.45;;;;;;;;;;5030457;28;20281;-68
2022/10/05 14:07:53;;;;;;;4.10;2.20;;;;;;;;;;5030651;28;20022;-70
2022/10/05 14:10:52;;;;;;;6.38;2.60;;;;;;;;;;5031900;28;20049;-68
2022/10/05 14:13:43;;;;;;;11.50;2.38;;;;;;;;;;4985691;28;20117;-69
2022/10/05 14:16:11;;;;;;;5.95;2.10;;;;;;;;;;5033497;28;20022;-70
2022/10/05 14:18:37;;;;;;;7.93;2.45;;;;;;;;;;5027009;28;20012;-70
2022/10/05 14:21:12;;;;;;;4.43;2.17;;;;;;;;;;5014437;28;20018;-71
2022/10/05 14:23:37;;;;;;;8.35;2.63;;;;;;;;;;5014120;28;20024;-70
2022/10/05 14:26:15;;;;;;;7.75;2.72;;;;;;;;;;5032401;28;20013;-72
2022/10/05 14:28:42;;;;;;;5.75;2.05;;;;;;;;;;5030424;28;20589;-72
2022/10/05 14:31:34;;;;;;;5.78;2.20;;;;;;;;;;5010065;28;20072;-72
2022/10/05 14:34:18;;;;;;;4.70;1.88;;;;;;;;;;5027679;28;20374;-71
2022/10/05 14:36:43;;;;;;;5.90;3.05;;;;;;;;;;5031121;28;20028;-71
2022/10/05 14:39:11;;;;;;;6.50;2.75;;;;;;;;;;5029692;28;20061;-67
2022/10/05 14:41:41;;;;;;;7.40;2.55;;;;;;;;;;5014547;28;20427;-67
2022/10/05 14:44:12;;;;;;;5.78;2.47;;;;;;;;;;5028544;28;20025;-69
2022/10/05 14:46:47;;;;;;;6.00;2.15;;;;;;;;;;5028566;28;20053;-68
2022/10/05 14:49:21;;;;;;;10.73;2.15;;;;;;;;;;5025506;28;20479;-68
2022/10/05 14:51:47;;;;;;;4.32;1.52;;;;;;;;;;5029625;28;20117;-70
2022/10/05 14:54:28;;;;;;;4.72;2.42;;;;;;;;;;5030505;28;20030;-68
2022/10/05 14:56:53;;;;;;;3.90;1.77;;;;;;;;;;5019210;28;20026;-68
2022/10/05 14:59:28;;;;;;;3.73;1.80;;;;;;;;;;5026948;28;20096;-68
2022/10/05 15:02:08;;;;;;;11.73;3.42;;;;;;;;;;5024371;28;20760;-68
2022/10/05 15:04:41;;;;;;;4.15;1.70;;;;;;;;;;5022886;28;20085;-70
2022/10/05 15:07:19;;;;;;;5.38;1.92;;;;;;;;;;5023418;28;20017;-66
2022/10/05 15:10:02;;;;;;;3.75;1.67;;;;;;;;;;5030438;28;20425;-67
2022/10/05 15:12:31;;;;;;;3.05;1.67;;;;;;;;;;5021807;28;20028;-68
2022/10/05 15:15:24;;;;;;;6.10;1.77;;;;;;;;;;5030211;28;20021;-68
2022/10/05 15:17:55;;;;;;;5.10;1.85;;;;;;;;;;5027485;28;20049;-67